Sawyer International Airport
KSAW : now visible

Airfield :











YOU CAN JOIN US ON...

 
LOGIN :

Register | Disclaimer

   EN    FR    IT 

 









Legend :    VFR   Marginal VFR   IFR   Intensive IFR   Very Intensive IFR
Visi :
Ceiling :
>= 8 km
>= 3000ft
5 to 8 km
1000 to 3000 ft
1500m to 5 km
500 to 1000 ft
800 to 1500m
200 to 500 ft
< 800m
< 200 ft
Symbols :   Thunderstorms  Fog  Heavy snow  Heavy precipitations  Wind > 20 kt







- Airport Elevation : 1221 ft


KSAW - Sawyer International

CURRENT METAR :
  • 191145Z 06012G22KT 4SM RA OVC004 04/03 A2982 RMK VIS N 1

EXPIRED METARs :
  • 191045Z 04014KT 7SM -RA OVC004 04/03 A2984
  • 190958Z AUTO 06010KT 7SM RA OVC004 04/03 A2988 RMK AO2 P0006 T00380030
  • 190938Z AUTO 06009G14KT 5SM RA OVC004 04/03 A2989 RMK AO2 P0003 T00380030
  • 190919Z AUTO 05010KT 10SM -RA OVC004 04/03 A2989 RMK AO2 P0001 T00380030

TAF KSAW
Valid from the 19 at 12:00 until the 20 at 12:00 UTC


191134Z 1912/2012 05011G21KT 5SM RA BR OVC003
FM191500 05016G26KT 1 1/2SM RA BR OVC004
FM192000 04017G27KT 1/2SM RA OVC003
FM200300 01016KT 2SM BR VCSH OVC002
KZMP FIR / North America



MET'MAP, your aeronautical weather chart ! - Copyright ORBIFLY December 2007 - Disclaimer

ORBIFLY MET'MAP TEAM :

Programming & Development : Alexandra Zaïnal
Concept & Development : Baudouin d'Aumeries
Co-Development & Prog : Marc-Olivier Méhu
Technical & hardware support : Manuel Goepfert

Contact : metmap@orbifly.com




SOURCES & CREDITS :

   NOAA       Earth
Advisory